Time;durP1;ratioP1;P1;durP2;ratioP2;P2;SDS_P1;SDS_P2;PMS_P1;PMS_P2;Temp;Humidity;BMP_temperature;BMP_pressure;BME280_temperature;BME280_humidity;BME280_pressure;Samples;Min_cycle;Max_cycle;Signal;HPM_P1;HPM_P2
2021/01/01 00:01:41;;;;;;;30.38;19.73;;;;;;;0.91;87.26;95229.41;5065421;28;20060;-76
2021/01/01 00:04:07;;;;;;;30.55;18.60;;;;;;;0.91;87.19;95219.09;5087819;28;20053;-76
2021/01/01 00:06:35;;;;;;;27.40;16.75;;;;;;;0.87;86.90;95230.00;5068231;28;20059;-76
2021/01/01 00:09:02;;;;;;;25.80;16.95;;;;;;;0.88;87.33;95229.00;5080016;28;20048;-76
2021/01/01 00:11:28;;;;;;;25.92;16.05;;;;;;;0.90;87.24;95227.81;5082991;28;20464;-76
2021/01/01 00:13:54;;;;;;;30.85;17.05;;;;;;;0.93;87.20;95227.44;5068397;28;20052;-76
2021/01/01 00:16:21;;;;;;;21.77;15.50;;;;;;;0.95;87.16;95233.22;5089220;28;20055;-77
2021/01/01 00:18:47;;;;;;;26.35;16.42;;;;;;;0.99;87.06;95225.91;5089955;28;20047;-76
2021/01/01 00:21:13;;;;;;;25.73;18.00;;;;;;;1.00;86.98;95225.72;5081538;28;20043;-77
2021/01/01 00:23:39;;;;;;;39.72;25.88;;;;;;;1.01;86.80;95227.31;5079728;28;20043;-76
2021/01/01 00:26:15;;;;;;;47.40;26.75;;;;;;;1.00;86.83;95227.50;5083462;28;20484;-76
2021/01/01 00:28:43;;;;;;;45.97;27.58;;;;;;;1.00;86.75;95228.28;5079083;28;20053;-77
2021/01/01 00:31:17;;;;;;;41.10;24.33;;;;;;;0.98;86.90;95232.03;5083965;28;20036;-76
2021/01/01 00:33:44;;;;;;;58.30;36.05;;;;;;;0.99;86.86;95231.06;5068025;28;20396;-77
2021/01/01 00:36:12;;;;;;;44.63;25.05;;;;;;;0.98;86.92;95238.00;5081607;28;20071;-77
2021/01/01 00:38:41;;;;;;;45.13;26.00;;;;;;;0.99;86.92;95238.81;5072319;28;20032;-77
2021/01/01 00:41:07;;;;;;;39.38;24.98;;;;;;;0.96;86.83;95239.97;5082911;28;20390;-77
2021/01/01 00:43:34;;;;;;;51.33;28.67;;;;;;;0.97;86.85;95241.59;5064116;28;20048;-77
2021/01/01 00:46:00;;;;;;;53.42;30.75;;;;;;;0.98;86.99;95244.94;5064794;28;20067;-77
2021/01/01 00:48:27;;;;;;;67.30;38.63;;;;;;;1.00;86.78;95246.34;5071750;28;20059;-78
2021/01/01 00:50:53;;;;;;;52.75;29.77;;;;;;;1.02;86.89;95241.00;5088424;28;20048;-74
2021/01/01 00:53:19;;;;;;;51.00;29.88;;;;;;;1.06;86.82;95238.88;5081891;28;20062;-78
2021/01/01 00:55:45;;;;;;;47.55;25.92;;;;;;;1.04;86.70;95246.78;5065952;28;20060;-77
2021/01/01 00:58:11;;;;;;;32.80;19.00;;;;;;;1.01;86.63;95245.38;5068480;28;20468;-78
2021/01/01 01:00:38;;;;;;;39.63;22.52;;;;;;;0.98;86.61;95253.50;5091410;28;20051;-78
2021/01/01 01:03:04;;;;;;;65.80;34.45;;;;;;;1.00;86.72;95263.63;5059633;28;20098;-77
2021/01/01 01:05:30;;;;;;;79.53;40.63;;;;;;;0.96;86.57;95258.03;5084505;28;20495;-77
2021/01/01 01:07:56;;;;;;;44.70;24.88;;;;;;;0.96;87.11;95257.25;5062522;28;20071;-77
2021/01/01 01:10:23;;;;;;;37.85;21.63;;;;;;;0.98;86.79;95263.03;5068815;28;20063;-77
2021/01/01 01:12:49;;;;;;;36.30;21.83;;;;;;;0.99;86.93;95270.59;5064493;28;20067;-77
2021/01/01 01:15:15;;;;;;;39.95;23.95;;;;;;;1.03;86.87;95281.34;5061182;28;20036;-78
2021/01/01 01:17:41;;;;;;;39.83;22.80;;;;;;;1.05;86.81;95278.56;5045045;28;20514;-78
2021/01/01 01:20:09;;;;;;;35.33;22.40;;;;;;;1.07;86.82;95281.75;5092178;28;20479;-78
2021/01/01 01:22:35;;;;;;;35.88;20.88;;;;;;;1.09;86.91;95272.03;5079720;28;20057;-78
2021/01/01 01:25:03;;;;;;;36.00;21.52;;;;;;;1.07;86.68;95277.41;5055689;28;20032;-78
2021/01/01 01:27:29;;;;;;;32.50;19.88;;;;;;;1.09;86.67;95277.19;5059929;28;20036;-79
2021/01/01 01:29:57;;;;;;;33.35;19.42;;;;;;;1.08;86.55;95275.63;5067290;28;20048;-77
2021/01/01 01:32:23;;;;;;;31.95;18.73;;;;;;;1.09;86.39;95278.03;5064709;28;20053;-78
2021/01/01 01:34:49;;;;;;;32.72;19.67;;;;;;;1.10;86.76;95277.03;5046678;28;20051;-78
2021/01/01 01:37:15;;;;;;;32.33;19.13;;;;;;;1.12;86.74;95276.84;5076476;28;20405;-79
2021/01/01 01:39:41;;;;;;;32.75;19.80;;;;;;;1.10;86.60;95276.22;5066475;28;20059;-78
2021/01/01 01:42:08;;;;;;;29.73;18.92;;;;;;;1.09;86.65;95272.84;5083119;28;20055;-78
2021/01/01 01:44:34;;;;;;;32.20;19.25;;;;;;;1.10;86.71;95277.03;5084377;28;20059;-78
2021/01/01 01:47:00;;;;;;;32.35;19.08;;;;;;;1.11;86.85;95275.22;5081298;28;20044;-78
2021/01/01 01:49:27;;;;;;;30.17;18.83;;;;;;;1.11;86.75;95278.59;5064383;28;20041;-78
2021/01/01 01:51:54;;;;;;;29.17;18.83;;;;;;;1.13;87.02;95283.59;5083391;28;20045;-78
2021/01/01 01:54:21;;;;;;;31.95;19.85;;;;;;;1.14;86.77;95282.63;5086577;28;20373;-78
2021/01/01 01:56:48;;;;;;;36.10;20.50;;;;;;;1.14;86.66;95286.00;5046397;28;20067;-79
2021/01/01 01:59:17;;;;;;;28.13;18.00;;;;;;;1.14;86.57;95296.31;5071548;28;20040;-78
2021/01/01 02:01:44;;;;;;;35.53;19.25;;;;;;;1.14;86.79;95296.31;5082799;28;20397;-78
2021/01/01 02:04:10;;;;;;;34.90;20.90;;;;;;;1.16;86.67;95290.97;5069929;28;20067;-78
2021/01/01 02:06:36;;;;;;;33.55;20.45;;;;;;;1.18;86.76;95299.34;5045108;28;20052;-78
2021/01/01 02:09:03;;;;;;;33.30;19.27;;;;;;;1.21;86.64;95304.91;5083910;28;20048;-78
2021/01/01 02:11:31;;;;;;;33.80;20.02;;;;;;;1.21;86.90;95307.47;5064840;28;20056;-78
2021/01/01 02:14:00;;;;;;;32.88;19.85;;;;;;;1.23;86.67;95314.25;5084055;28;20399;-78
2021/01/01 02:16:27;;;;;;;34.40;19.95;;;;;;;1.22;86.65;95313.47;5064072;28;20052;-78
2021/01/01 02:18:53;;;;;;;30.60;18.50;;;;;;;1.24;86.63;95319.25;5082203;28;20048;-78
2021/01/01 02:21:20;;;;;;;32.67;19.40;;;;;;;1.22;86.62;95321.22;5074560;28;20055;-78
2021/01/01 02:23:47;;;;;;;35.33;20.15;;;;;;;1.19;86.46;95331.91;5080162;28;20059;-78
2021/01/01 02:26:14;;;;;;;35.10;21.02;;;;;;;1.18;86.68;95330.31;5062948;28;20041;-78
2021/01/01 02:28:40;;;;;;;33.38;20.77;;;;;;;1.15;86.68;95328.88;5091170;28;20059;-78
2021/01/01 02:31:06;;;;;;;35.15;20.23;;;;;;;1.10;86.36;95328.66;5064568;28;20052;-78
2021/01/01 02:33:33;;;;;;;34.50;20.50;;;;;;;1.06;86.52;95324.06;5070626;28;20040;-78
2021/01/01 02:35:59;;;;;;;41.95;21.90;;;;;;;1.05;86.64;95325.84;5084978;28;20051;-78
2021/01/01 02:38:26;;;;;;;35.60;20.67;;;;;;;1.05;86.86;95320.69;5080842;28;20393;-78
2021/01/01 02:40:52;;;;;;;39.05;22.50;;;;;;;1.06;86.72;95326.63;5095102;28;20048;-78
2021/01/01 02:43:19;;;;;;;37.78;21.83;;;;;;;1.02;86.52;95315.88;5081503;28;20059;-78
2021/01/01 02:45:45;;;;;;;35.65;20.80;;;;;;;1.01;86.83;95316.88;5076147;28;20052;-78
2021/01/01 02:48:15;;;;;;;38.83;20.40;;;;;;;1.02;87.08;95321.81;5090493;28;20404;-78
2021/01/01 02:50:42;;;;;;;35.08;20.67;;;;;;;1.07;86.88;95330.81;5085636;28;20048;-78
2021/01/01 02:53:09;;;;;;;38.35;21.50;;;;;;;1.08;86.83;95319.50;5085799;28;20054;-78
2021/01/01 02:55:36;;;;;;;36.72;21.25;;;;;;;1.10;86.86;95318.31;5088850;28;20037;-78
2021/01/01 02:58:03;;;;;;;34.58;20.08;;;;;;;1.14;86.88;95322.13;5087730;28;20056;-78
2021/01/01 03:00:30;;;;;;;34.25;20.95;;;;;;;1.15;86.81;95315.97;5075083;28;20056;-78
2021/01/01 03:02:57;;;;;;;32.17;19.38;;;;;;;1.18;86.64;95325.16;5067183;28;20036;-78
2021/01/01 03:05:23;;;;;;;34.40;19.90;;;;;;;1.19;86.69;95319.78;5074619;28;20077;-78
2021/01/01 03:07:49;;;;;;;34.63;19.75;;;;;;;1.20;86.63;95318.81;5090188;28;20059;-78
2021/01/01 03:10:18;;;;;;;38.42;20.77;;;;;;;1.24;86.67;95326.16;5091631;28;20059;-78
2021/01/01 03:12:44;;;;;;;35.03;21.63;;;;;;;1.25;86.66;95328.56;5082331;28;20052;-78
2021/01/01 03:15:11;;;;;;;35.33;20.20;;;;;;;1.26;86.74;95327.59;5063661;28;20040;-78
2021/01/01 03:17:37;;;;;;;38.28;20.77;;;;;;;1.26;86.62;95329.38;5063826;28;20036;-79
2021/01/01 03:20:05;;;;;;;38.20;21.55;;;;;;;1.20;86.24;95325.75;5080774;28;20041;-78
2021/01/01 03:22:32;;;;;;;35.78;20.90;;;;;;;1.20;86.43;95325.75;5069385;28;20047;-78
2021/01/01 03:24:58;;;;;;;35.70;19.55;;;;;;;1.20;86.48;95323.97;5073606;28;20059;-78
2021/01/01 03:27:24;;;;;;;38.45;20.08;;;;;;;1.20;86.47;95329.13;5067442;28;20056;-78
2021/01/01 03:29:50;;;;;;;31.70;20.27;;;;;;;1.18;86.47;95322.56;5067042;28;20045;-78
2021/01/01 03:32:17;;;;;;;38.58;22.48;;;;;;;1.15;86.60;95326.31;5066061;28;20123;-78
2021/01/01 03:34:43;;;;;;;38.17;21.35;;;;;;;1.11;86.41;95321.69;5070253;28;20114;-78
2021/01/01 03:37:09;;;;;;;36.92;20.17;;;;;;;1.04;86.62;95320.84;5066210;28;20052;-78
2021/01/01 03:39:36;;;;;;;37.65;20.73;;;;;;;1.02;86.68;95314.09;5039681;28;20040;-78
2021/01/01 03:42:03;;;;;;;34.75;20.08;;;;;;;0.99;86.76;95319.63;5086173;28;20062;-78
2021/01/01 03:44:29;;;;;;;35.80;19.85;;;;;;;1.03;86.98;95320.06;5071404;28;20044;-78
2021/01/01 03:46:55;;;;;;;37.00;20.90;;;;;;;1.06;87.05;95317.09;5034282;28;20390;-78
2021/01/01 03:49:21;;;;;;;36.65;21.70;;;;;;;1.07;87.03;95330.81;5066244;28;20411;-78
2021/01/01 03:51:47;;;;;;;43.45;23.02;;;;;;;1.06;86.88;95329.22;5047543;28;20051;-78
2021/01/01 03:54:13;;;;;;;37.47;20.60;;;;;;;1.05;86.61;95330.19;5088497;28;20048;-78
2021/01/01 03:56:40;;;;;;;38.72;21.23;;;;;;;1.06;86.95;95329.22;5071660;28;20045;-78
2021/01/01 03:59:06;;;;;;;46.10;24.52;;;;;;;1.09;87.05;95328.84;5066974;28;20066;-78
2021/01/01 04:01:32;;;;;;;67.00;39.15;;;;;;;1.11;86.91;95335.41;5041768;28;20039;-78
2021/01/01 04:03:58;;;;;;;70.15;39.00;;;;;;;1.15;86.89;95330.66;5074141;28;20055;-78
2021/01/01 04:06:25;;;;;;;82.20;49.85;;;;;;;1.14;86.89;95326.50;5068571;28;20370;-78
2021/01/01 04:08:51;;;;;;;55.78;33.05;;;;;;;1.14;86.92;95323.94;5064120;28;20044;-78
2021/01/01 04:11:17;;;;;;;87.22;50.22;;;;;;;1.15;86.81;95323.72;5064603;28;20048;-78
2021/01/01 04:13:43;;;;;;;74.22;46.08;;;;;;;1.17;86.96;95332.06;5067838;28;20048;-78
2021/01/01 04:16:09;;;;;;;52.38;31.55;;;;;;;1.20;86.68;95330.94;5093054;28;20476;-78
2021/01/01 04:18:36;;;;;;;46.42;26.65;;;;;;;1.23;86.68;95324.59;5056502;28;20032;-78
2021/01/01 04:21:02;;;;;;;48.45;28.25;;;;;;;1.23;86.70;95327.16;5065542;28;20047;-79
2021/01/01 04:23:28;;;;;;;58.10;35.75;;;;;;;1.23;86.70;95322.78;5091617;28;20054;-78
2021/01/01 04:25:54;;;;;;;60.28;36.88;;;;;;;1.25;86.67;95326.00;5047478;28;20037;-78
2021/01/01 04:28:20;;;;;;;58.38;34.88;;;;;;;1.25;86.69;95323.41;5072574;28;20048;-78
2021/01/01 04:30:46;;;;;;;45.25;26.58;;;;;;;1.26;86.81;95327.59;5073150;28;20048;-78
2021/01/01 04:33:13;;;;;;;44.42;23.73;;;;;;;1.27;86.61;95326.59;5053095;28;20396;-78
2021/01/01 04:35:39;;;;;;;37.78;22.23;;;;;;;1.27;86.55;95325.81;5038446;28;20049;-78
2021/01/01 04:38:05;;;;;;;46.05;24.27;;;;;;;1.27;86.47;95325.81;5063706;28;20044;-79
2021/01/01 04:40:32;;;;;;;54.70;32.88;;;;;;;1.28;86.37;95330.78;5068998;28;20468;-78
2021/01/01 04:42:58;;;;;;;43.30;25.42;;;;;;;1.26;86.68;95337.94;5090030;28;20500;-78
2021/01/01 04:45:27;;;;;;;42.72;23.77;;;;;;;1.27;86.55;95333.56;5060339;28;20056;-78
2021/01/01 04:47:53;;;;;;;42.90;23.13;;;;;;;1.27;86.48;95333.56;5087069;28;20044;-78
2021/01/01 04:50:20;;;;;;;39.13;21.48;;;;;;;1.26;86.42;95334.53;5078944;28;20056;-78
2021/01/01 04:52:49;;;;;;;40.25;22.95;;;;;;;1.25;86.55;95330.38;5088750;28;20048;-78
2021/01/01 04:55:16;;;;;;;38.92;22.40;;;;;;;1.24;86.45;95332.16;5077487;28;20380;-78
2021/01/01 04:57:42;;;;;;;38.63;22.00;;;;;;;1.23;86.54;95330.53;5071925;28;20047;-79
2021/01/01 05:00:09;;;;;;;39.53;21.58;;;;;;;1.21;86.54;95328.13;5043673;28;20404;-78
2021/01/01 05:02:35;;;;;;;42.80;23.20;;;;;;;1.24;86.62;95333.91;5087165;28;20114;-78
2021/01/01 05:05:02;;;;;;;38.42;21.67;;;;;;;1.25;86.51;95336.31;5082634;28;20518;-78
2021/01/01 05:07:28;;;;;;;39.70;23.58;;;;;;;1.23;86.47;95333.13;5051629;28;20052;-78
2021/01/01 05:09:56;;;;;;;40.38;22.80;;;;;;;1.24;86.50;95339.91;5080884;28;20051;-78
2021/01/01 05:12:31;;;;;;;39.08;23.05;;;;;;;1.25;86.40;95341.47;5055423;28;20055;-78
2021/01/01 05:14:57;;;;;;;39.50;23.23;;;;;;;1.27;86.56;95346.47;5089055;28;20048;-78
2021/01/01 05:17:34;;;;;;;38.95;22.33;;;;;;;1.26;86.51;95345.69;5070734;28;20055;-78
2021/01/01 05:20:09;;;;;;;45.90;24.15;;;;;;;1.27;86.69;95344.69;5070620;28;20050;-78
2021/01/01 05:22:35;;;;;;;43.03;23.17;;;;;;;1.26;86.50;95350.03;5085092;28;20036;-78
2021/01/01 05:25:18;;;;;;;37.78;21.25;;;;;;;1.25;86.58;95351.81;5061227;28;20052;-78
2021/01/01 05:27:48;;;;;;;43.30;22.17;;;;;;;1.24;86.42;95354.56;5069282;28;20053;-78
2021/01/01 05:30:17;;;;;;;37.90;21.58;;;;;;;1.22;86.43;95352.19;5051416;28;20047;-78
2021/01/01 05:32:52;;;;;;;37.67;21.38;;;;;;;1.24;86.55;95364.91;5083949;28;20047;-78
2021/01/01 05:35:29;;;;;;;38.97;21.50;;;;;;;1.22;86.49;95372.84;5071008;28;20044;-78
2021/01/01 05:37:56;;;;;;;38.80;21.20;;;;;;;1.21;86.50;95366.09;5082666;28;20472;-78
2021/01/01 05:40:30;;;;;;;42.97;22.73;;;;;;;1.21;86.53;95373.81;5029624;28;20044;-78
2021/01/01 05:43:16;;;;;;;40.20;22.52;;;;;;;1.17;86.45;95370.81;5031427;28;20476;-78
2021/01/01 05:45:42;;;;;;;39.97;21.60;;;;;;;1.17;86.40;95370.03;5059671;28;20048;-79
2021/01/01 05:48:08;;;;;;;44.17;23.30;;;;;;;1.14;86.36;95371.19;5038793;28;20832;-79
2021/01/01 05:50:35;;;;;;;41.10;22.27;;;;;;;1.13;86.34;95372.16;5067988;28;20048;-78
2021/01/01 05:53:16;;;;;;;39.75;21.42;;;;;;;1.13;86.35;95379.13;5047939;28;20059;-79
2021/01/01 05:55:44;;;;;;;39.05;22.42;;;;;;;1.11;86.51;95383.66;5080511;28;20510;-78
2021/01/01 05:58:25;;;;;;;36.80;20.63;;;;;;;1.13;86.40;95379.13;5068700;28;20059;-78
2021/01/01 06:00:56;;;;;;;40.47;22.02;;;;;;;1.11;86.40;95386.25;5082872;28;20044;-78
2021/01/01 06:03:25;;;;;;;57.80;28.88;;;;;;;1.06;86.11;95386.00;5069358;28;20044;-78
2021/01/01 06:05:56;;;;;;;63.38;30.20;;;;;;;0.94;86.46;95393.44;5067096;28;20404;-78
2021/01/01 06:08:29;;;;;;;45.63;24.25;;;;;;;0.87;86.86;95392.59;5070948;28;20070;-78
2021/01/01 06:11:03;;;;;;;49.78;25.25;;;;;;;0.86;86.96;95393.53;5093122;28;20078;-79
2021/01/01 06:13:34;;;;;;;44.10;23.23;;;;;;;0.87;87.03;95395.16;5089194;28;20052;-78
2021/01/01 06:16:04;;;;;;;41.85;21.75;;;;;;;0.89;87.11;95401.72;5066982;28;20457;-78
2021/01/01 06:18:32;;;;;;;42.33;22.80;;;;;;;0.92;87.03;95397.97;5073971;28;20480;-78
2021/01/01 06:21:06;;;;;;;43.40;23.75;;;;;;;0.94;86.93;95401.97;5080800;28;20044;-78
2021/01/01 06:23:32;;;;;;;48.15;24.63;;;;;;;0.94;86.86;95414.88;5082182;28;20496;-78
2021/01/01 06:26:00;;;;;;;43.60;23.58;;;;;;;0.94;86.89;95427.00;5087487;28;20040;-78
2021/01/01 06:28:27;;;;;;;48.38;25.52;;;;;;;0.94;86.92;95429.56;5067224;28;20497;-79
2021/01/01 06:30:55;;;;;;;51.53;25.52;;;;;;;0.90;86.65;95434.28;5060200;28;20048;-78
2021/01/01 06:33:23;;;;;;;58.85;32.50;;;;;;;0.84;86.72;95435.03;5089237;28;20052;-78
2021/01/01 06:35:50;;;;;;;42.00;25.02;;;;;;;0.84;87.02;95435.03;5084306;28;20048;-78
2021/01/01 06:38:35;;;;;;;47.80;25.70;;;;;;;0.85;87.18;95443.56;5056638;28;20044;-78
2021/01/01 06:41:25;;;;;;;48.15;24.42;;;;;;;0.84;87.25;95445.38;5085887;28;20043;-78
2021/01/01 06:43:55;;;;;;;43.05;22.52;;;;;;;0.84;87.50;95437.63;5085485;28;20050;-78
2021/01/01 06:46:34;;;;;;;44.72;24.35;;;;;;;0.86;87.80;95442.59;5093825;28;20033;-78
2021/01/01 06:49:05;;;;;;;42.10;22.92;;;;;;;0.89;87.48;95440.44;5093702;28;20391;-78
2021/01/01 06:51:32;;;;;;;38.67;21.63;;;;;;;0.90;87.39;95442.03;5080758;28;20048;-78
2021/01/01 06:54:14;;;;;;;38.10;20.88;;;;;;;0.90;87.62;95442.03;5075468;28;20426;-78
2021/01/01 06:56:42;;;;;;;36.40;17.95;;;;;;;0.91;87.49;95443.66;5062847;28;20392;-78
2021/01/01 06:59:09;;;;;;;34.13;18.95;;;;;;;0.90;87.49;95451.56;5060757;28;20036;-78
2021/01/01 07:01:45;;;;;;;29.27;17.40;;;;;;;0.90;87.59;95456.72;5060129;28;20051;-79
2021/01/01 07:04:12;;;;;;;32.70;17.50;;;;;;;0.90;87.60;95457.53;5072835;28;20071;-78
2021/01/01 07:06:40;;;;;;;32.67;18.38;;;;;;;0.91;87.53;95461.72;5078237;28;20505;-78
2021/01/01 07:09:08;;;;;;;30.58;17.42;;;;;;;0.92;87.55;95454.75;5043704;28;20063;-78
2021/01/01 07:11:37;;;;;;;30.70;16.90;;;;;;;0.93;87.48;95462.34;5060222;28;20432;-78
2021/01/01 07:14:08;;;;;;;30.25;15.90;;;;;;;0.93;87.48;95470.06;5094635;28;20098;-78
2021/01/01 07:16:40;;;;;;;27.23;15.15;;;;;;;0.94;87.55;95463.91;5045530;28;20036;-78
2021/01/01 07:19:06;;;;;;;27.95;15.73;;;;;;;0.98;87.59;95469.53;5068321;28;20052;-78
2021/01/01 07:21:32;;;;;;;25.13;14.35;;;;;;;0.99;87.58;95471.94;5064719;28;20059;-79
2021/01/01 07:23:58;;;;;;;24.35;14.18;;;;;;;1.02;87.56;95476.72;5090018;28;20063;-78
2021/01/01 07:26:27;;;;;;;25.15;13.80;;;;;;;1.05;87.66;95475.59;5043739;28;20032;-78
2021/01/01 07:28:55;;;;;;;24.25;14.02;;;;;;;1.09;87.50;95481.16;5059554;28;20036;-78
2021/01/01 07:31:22;;;;;;;25.67;13.65;;;;;;;1.10;87.45;95490.53;5052304;28;20547;-78
2021/01/01 07:33:49;;;;;;;24.15;13.70;;;;;;;1.11;87.48;95482.56;5051970;28;20053;-78
2021/01/01 07:36:16;;;;;;;22.90;12.65;;;;;;;1.14;87.43;95487.38;5084160;28;20079;-78
2021/01/01 07:38:45;;;;;;;23.98;13.60;;;;;;;1.16;87.41;95497.53;5063739;28;20380;-78
2021/01/01 07:41:13;;;;;;;20.20;12.43;;;;;;;1.20;87.44;95498.78;5091501;28;20130;-78
2021/01/01 07:43:39;;;;;;;18.77;11.50;;;;;;;1.23;87.22;95492.44;5063372;28;20043;-78
2021/01/01 07:46:08;;;;;;;16.85;10.07;;;;;;;1.21;87.14;95490.81;5071917;28;20033;-78
2021/01/01 07:48:36;;;;;;;16.38;10.45;;;;;;;1.20;86.92;95491.03;5083380;28;20040;-78
2021/01/01 07:51:10;;;;;;;16.70;10.38;;;;;;;1.19;86.80;95490.22;5060724;28;20036;-78
2021/01/01 07:53:37;;;;;;;16.98;10.02;;;;;;;1.21;86.84;95500.38;5085963;28;20040;-78
2021/01/01 07:56:08;;;;;;;18.35;11.20;;;;;;;1.21;86.83;95503.75;5075028;28;20101;-78
2021/01/01 07:58:36;;;;;;;21.63;11.63;;;;;;;1.26;87.13;95499.81;5087503;28;20036;-78
2021/01/01 08:01:10;;;;;;;17.50;9.93;;;;;;;1.28;87.12;95492.69;5058237;28;20059;-78
2021/01/01 08:03:38;;;;;;;17.95;10.60;;;;;;;1.29;86.98;95496.88;5049668;28;20059;-78
2021/01/01 08:06:08;;;;;;;18.27;9.77;;;;;;;1.30;87.05;95513.97;5080581;28;20048;-78
2021/01/01 08:08:34;;;;;;;15.32;8.93;;;;;;;1.32;86.92;95517.16;5072022;28;20048;-78
2021/01/01 08:11:01;;;;;;;15.05;9.65;;;;;;;1.34;87.07;95533.28;5066797;28;20048;-77
2021/01/01 08:13:31;;;;;;;15.93;10.02;;;;;;;1.36;86.95;95542.44;5069003;28;20045;-78
2021/01/01 08:16:09;;;;;;;18.50;10.05;;;;;;;1.39;87.07;95543.88;5065038;28;20048;-78
2021/01/01 08:18:36;;;;;;;18.30;10.30;;;;;;;1.41;86.97;95542.72;5071017;28;20424;-77
2021/01/01 08:21:04;;;;;;;16.38;10.02;;;;;;;1.42;86.98;95536.53;5078839;28;20472;-77
2021/01/01 08:23:54;;;;;;;17.25;10.05;;;;;;;1.44;86.75;95538.16;5063319;28;20024;-77
2021/01/01 08:26:20;;;;;;;16.60;10.18;;;;;;;1.46;87.02;95538.78;5072028;28;20043;-77
2021/01/01 08:28:51;;;;;;;18.67;11.07;;;;;;;1.46;86.68;95547.31;5071946;28;20051;-77
2021/01/01 08:31:20;;;;;;;15.93;9.65;;;;;;;1.47;86.69;95540.38;5086304;28;20397;-77
2021/01/01 08:33:51;;;;;;;17.50;10.02;;;;;;;1.48;86.70;95542.78;5083796;28;20044;-77
2021/01/01 08:36:17;;;;;;;17.58;9.48;;;;;;;1.49;86.63;95553.91;5081956;28;20048;-77
2021/01/01 08:38:43;;;;;;;16.80;9.93;;;;;;;1.50;86.61;95556.31;5061945;28;20051;-77
2021/01/01 08:41:17;;;;;;;15.35;8.40;;;;;;;1.51;86.53;95555.34;5067845;28;20052;-76
2021/01/01 08:43:45;;;;;;;16.75;9.50;;;;;;;1.54;86.37;95564.50;5049832;28;20063;-76
2021/01/01 08:46:15;;;;;;;15.50;9.40;;;;;;;1.56;86.38;95558.16;5066180;28;20044;-76
2021/01/01 08:48:42;;;;;;;15.63;9.45;;;;;;;1.57;86.49;95558.97;5083903;28;20411;-76
2021/01/01 08:51:08;;;;;;;15.38;9.25;;;;;;;1.62;86.26;95561.81;5083030;28;20067;-76
2021/01/01 08:53:41;;;;;;;13.80;8.07;;;;;;;1.65;86.28;95569.19;5084100;28;20044;-76
2021/01/01 08:56:08;;;;;;;14.52;7.35;;;;;;;1.67;86.17;95567.22;5083437;28;20055;-76
2021/01/01 08:58:35;;;;;;;11.13;6.88;;;;;;;1.71;86.09;95563.28;5087119;28;20408;-79
2021/01/01 09:01:22;;;;;;;12.68;7.63;;;;;;;1.76;85.72;95573.06;5091563;28;20043;-75
2021/01/01 09:04:00;;;;;;;10.43;6.53;;;;;;;1.82;85.47;95578.28;5068515;28;20044;-75
2021/01/01 09:06:27;;;;;;;11.32;6.90;;;;;;;1.91;85.29;95578.16;5080644;28;20047;-75
2021/01/01 09:09:07;;;;;;;11.25;6.72;;;;;;;1.96;84.88;95573.25;5089327;28;20051;-76
2021/01/01 09:11:33;;;;;;;9.20;6.55;;;;;;;2.00;84.88;95572.69;5081531;28;20079;-76
2021/01/01 09:14:03;;;;;;;12.32;6.65;;;;;;;2.04;85.12;95580.91;5086400;28;20060;-78
2021/01/01 09:16:30;;;;;;;11.13;6.47;;;;;;;2.07;84.76;95585.69;5088980;28;20044;-76
2021/01/01 09:19:09;;;;;;;11.27;6.75;;;;;;;2.08;84.11;95584.72;5069231;28;20378;-75
2021/01/01 09:21:36;;;;;;;12.18;7.20;;;;;;;2.13;84.48;95586.72;5078629;28;20050;-75
2021/01/01 09:24:02;;;;;;;10.60;6.68;;;;;;;2.15;84.24;95589.94;5055791;28;20051;-76
2021/01/01 09:26:30;;;;;;;9.98;6.05;;;;;;;2.17;83.75;95595.72;5081610;28;20408;-76
2021/01/01 09:29:08;;;;;;;13.38;6.88;;;;;;;2.18;83.25;95595.53;5068999;28;20043;-77
2021/01/01 09:31:36;;;;;;;9.38;6.10;;;;;;;2.19;83.14;95591.16;5070384;28;20043;-76
2021/01/01 09:34:04;;;;;;;8.70;5.97;;;;;;;2.15;82.91;95592.53;5055337;28;20052;-76
2021/01/01 09:36:39;;;;;;;9.75;6.30;;;;;;;2.15;82.38;95595.09;5072004;28;20412;-77
2021/01/01 09:39:07;;;;;;;8.43;5.65;;;;;;;2.19;83.49;95599.72;5085618;28;20472;-77
2021/01/01 09:41:37;;;;;;;9.10;6.05;;;;;;;2.54;92.73;95588.63;5052079;28;20472;-76
2021/01/01 09:44:04;;;;;;;9.23;6.00;;;;;;;3.35;100.00;95588.09;5085934;28;20051;-77
2021/01/01 09:46:31;;;;;;;9.05;5.60;;;;;;;3.64;87.11;95584.41;5079916;28;20055;-77
2021/01/01 09:48:57;;;;;;;6.10;4.88;;;;;;;3.58;83.06;95593.75;5083187;28;20044;-77
2021/01/01 09:51:23;;;;;;;7.53;4.82;;;;;;;3.47;82.79;95594.31;5068820;28;20037;-78
2021/01/01 09:53:50;;;;;;;7.20;5.25;;;;;;;3.34;82.01;95600.25;5079972;28;20036;-77
2021/01/01 09:56:16;;;;;;;10.43;4.80;;;;;;;3.23;81.67;95591.25;5064222;28;20048;-77
2021/01/01 09:58:42;;;;;;;5.95;3.92;;;;;;;3.17;81.11;95602.38;5058837;28;20059;-78
2021/01/01 10:01:08;;;;;;;7.10;4.05;;;;;;;3.02;80.68;95607.69;5068339;28;20040;-77
2021/01/01 10:03:34;;;;;;;6.22;3.33;;;;;;;2.94;80.95;95605.25;5064390;28;20035;-77
2021/01/01 10:06:01;;;;;;;5.93;4.30;;;;;;;2.88;80.69;95608.59;5085478;28;20488;-77
2021/01/01 10:08:27;;;;;;;8.48;5.70;;;;;;;2.81;80.70;95608.56;5064354;28;20052;-77
2021/01/01 10:10:54;;;;;;;10.32;6.53;;;;;;;2.66;80.22;95599.28;5068357;28;20063;-77
2021/01/01 10:13:20;;;;;;;9.82;6.53;;;;;;;2.61;80.84;95597.25;5065480;28;20060;-77
2021/01/01 10:15:46;;;;;;;13.25;8.73;;;;;;;2.57;80.31;95598.63;5054661;28;20049;-77
2021/01/01 10:18:12;;;;;;;14.50;8.35;;;;;;;2.53;80.87;95598.19;5068427;28;20524;-77
2021/01/01 10:20:38;;;;;;;15.70;9.65;;;;;;;2.56;80.65;95600.41;5069065;28;20424;-77
2021/01/01 10:23:05;;;;;;;16.52;9.73;;;;;;;2.58;80.97;95595.03;5066624;28;20041;-77
2021/01/01 10:25:31;;;;;;;13.05;8.55;;;;;;;2.61;81.01;95599.84;5068825;28;20473;-77
2021/01/01 10:27:57;;;;;;;11.10;7.10;;;;;;;2.63;80.30;95596.06;5032336;28;20048;-78
2021/01/01 10:30:23;;;;;;;11.07;6.75;;;;;;;3.19;91.70;95600.38;5066214;28;20053;-76
2021/01/01 10:32:49;;;;;;;6.55;4.53;;;;;;;3.39;81.15;95592.69;5063671;28;20037;-76
2021/01/01 10:35:16;;;;;;;16.00;9.52;;;;;;;3.24;79.94;95592.81;5066903;28;20041;-77
2021/01/01 10:37:42;;;;;;;13.43;8.85;;;;;;;3.10;79.79;95588.56;5057528;28;20048;-77
2021/01/01 10:40:08;;;;;;;17.95;10.65;;;;;;;2.99;79.05;95589.13;5065870;28;20044;-76
2021/01/01 10:42:34;;;;;;;25.95;13.75;;;;;;;2.83;78.92;95598.81;5062364;28;20037;-76
2021/01/01 10:45:01;;;;;;;21.60;12.25;;;;;;;2.61;78.67;95603.22;5062681;28;20049;-77
2021/01/01 10:47:27;;;;;;;21.23;12.48;;;;;;;2.54;79.46;95607.56;5065302;28;20500;-76
2021/01/01 10:49:53;;;;;;;12.90;8.18;;;;;;;2.57;79.71;95611.56;5069357;28;20048;-78
2021/01/01 10:52:19;;;;;;;13.70;8.00;;;;;;;2.58;79.56;95605.38;5061615;28;20472;-76
2021/01/01 10:54:46;;;;;;;12.85;8.02;;;;;;;2.60;79.81;95614.59;5064016;28;20045;-76
2021/01/01 10:57:12;;;;;;;16.60;9.10;;;;;;;2.61;79.66;95607.63;5070511;28;20033;-76
2021/01/01 10:59:39;;;;;;;18.67;10.30;;;;;;;2.63;79.78;95610.81;5062858;28;20401;-76
2021/01/01 11:02:06;;;;;;;13.65;8.70;;;;;;;2.62;79.53;95614.38;5061627;28;20028;-76
2021/01/01 11:04:32;;;;;;;11.23;6.95;;;;;;;2.61;78.87;95607.63;5066133;28;20042;-76
2021/01/01 11:06:58;;;;;;;10.93;7.60;;;;;;;2.57;78.64;95607.19;5066646;28;20064;-76
2021/01/01 11:09:25;;;;;;;14.68;9.02;;;;;;;2.56;78.95;95605.59;5063611;28;20067;-76
2021/01/01 11:11:54;;;;;;;19.38;10.68;;;;;;;2.60;79.50;95609.41;5042719;28;20508;-76
2021/01/01 12:25:39;;;;;;;6.38;4.22;;;;;;;2.91;75.74;95565.97;5080493;28;19912;-76
2021/01/01 12:28:08;;;;;;;5.05;3.38;;;;;;;2.94;75.43;95561.22;5085235;28;20049;-77
2021/01/01 12:30:35;;;;;;;5.25;3.35;;;;;;;2.95;75.26;95562.00;5066365;28;20483;-76
2021/01/01 12:33:02;;;;;;;4.45;3.35;;;;;;;2.92;74.39;95559.78;5082310;28;20399;-76
2021/01/01 12:35:29;;;;;;;4.43;3.22;;;;;;;2.86;74.78;95563.97;5080712;28;20052;-76
2021/01/01 12:38:03;;;;;;;4.75;3.38;;;;;;;2.84;73.13;95574.50;5083076;28;20048;-75
2021/01/01 12:40:30;;;;;;;4.80;3.60;;;;;;;2.80;74.66;95573.28;5084167;28;20048;-75
2021/01/01 12:43:00;;;;;;;4.93;3.20;;;;;;;2.76;74.22;95566.88;5085243;28;20044;-75
2021/01/01 12:45:27;;;;;;;5.97;3.85;;;;;;;2.71;74.22;95569.25;5077508;28;20048;-75